createdAt,value
2018-11-25T00:00:20.474Z,100828.91
2018-11-25T00:01:24.567Z,100821.39
2018-11-25T00:02:28.643Z,100823.25
2018-11-25T00:03:32.601Z,100821.59
2018-11-25T00:04:36.567Z,100824.58
2018-11-25T00:05:40.553Z,100821.94
2018-11-25T00:06:44.567Z,100830.23
2018-11-25T00:07:48.573Z,100823.25
2018-11-25T00:08:52.905Z,100822.05
2018-11-25T00:09:56.918Z,100826.47
2018-11-25T00:11:00.981Z,100818.65
2018-11-25T00:12:05.019Z,100826.94
2018-11-25T00:13:09.041Z,100823.84
2018-11-25T00:14:13.094Z,100827.21
2018-11-25T00:15:17.126Z,100826.55
2018-11-25T00:16:21.193Z,100825.50
2018-11-25T00:17:25.439Z,100823.63
2018-11-25T00:18:29.506Z,100823.63
2018-11-25T00:19:33.422Z,100824.75
2018-11-25T00:20:37.473Z,100823.91
2018-11-25T00:21:41.490Z,100823.32
2018-11-25T00:22:45.420Z,100824.94
2018-11-25T00:23:49.390Z,100820.02
2018-11-25T00:24:53.383Z,100823.78
2018-11-25T00:25:57.402Z,100821.33
2018-11-25T00:27:01.597Z,100821.33
2018-11-25T00:28:08.820Z,100821.52
2018-11-25T00:29:12.865Z,100818.48
2018-11-25T00:30:16.869Z,100821.13
2018-11-25T00:31:20.896Z,100820.19
2018-11-25T00:32:24.942Z,100823.77
2018-11-25T00:33:28.930Z,100828.30
2018-11-25T00:34:32.910Z,100823.96
2018-11-25T00:35:36.970Z,100822.77
2018-11-25T00:36:41.000Z,100826.33
2018-11-25T00:37:48.468Z,100824.55
2018-11-25T00:38:49.520Z,100828.58
2018-11-25T00:39:53.557Z,100823.78
2018-11-25T00:40:57.653Z,100829.90
2018-11-25T00:42:01.716Z,100827.27
2018-11-25T00:43:06.047Z,100822.11
2018-11-25T00:44:11.038Z,100820.79
2018-11-25T00:45:16.285Z,100820.02
2018-11-25T00:46:20.298Z,100824.36
2018-11-25T00:47:24.303Z,100820.98
2018-11-25T00:48:28.323Z,100817.03
2018-11-25T00:49:32.312Z,100817.11
2018-11-25T00:50:36.502Z,100818.05
2018-11-25T00:51:41.910Z,100813.82
2018-11-25T00:52:45.922Z,100818.36
2018-11-25T00:53:50.025Z,100815.92
2018-11-25T00:54:54.051Z,100810.84
2018-11-25T00:55:58.092Z,100812.98
2018-11-25T00:57:02.105Z,100813.09
2018-11-25T00:58:06.517Z,100808.29
2018-11-25T00:59:10.510Z,100808.76
2018-11-25T01:00:17.405Z,100811.20
2018-11-25T01:01:21.462Z,100803.09
2018-11-25T01:02:25.474Z,100809.13
2018-11-25T01:03:29.540Z,100808.16
2018-11-25T01:04:33.643Z,100799.91
2018-11-25T01:06:48.013Z,100803.29
2018-11-25T01:07:52.069Z,100807.36
2018-11-25T01:08:56.144Z,100799.18
2018-11-25T01:10:01.606Z,100803.59
2018-11-25T01:11:06.109Z,100801.90
2018-11-25T01:12:10.210Z,100803.80
2018-11-25T01:13:14.295Z,100806.52
2018-11-25T01:14:18.408Z,100802.17
2018-11-25T01:15:22.392Z,100794.77
2018-11-25T01:16:26.733Z,100802.75
2018-11-25T01:17:30.770Z,100804.66
2018-11-25T01:18:34.797Z,100799.93
2018-11-25T01:19:38.799Z,100805.31
2018-11-25T01:20:42.814Z,100800.13
2018-11-25T01:21:46.908Z,100804.20
2018-11-25T01:22:50.954Z,100803.34
2018-11-25T01:23:55.016Z,100802.48
2018-11-25T01:24:59.020Z,100798.62
2018-11-25T01:26:03.769Z,100796.09
2018-11-25T01:27:07.801Z,100797.88
2018-11-25T01:28:12.450Z,100799.28
2018-11-25T01:29:16.501Z,100796.76
2018-11-25T01:30:20.649Z,100796.76
2018-11-25T01:31:24.741Z,100798.08
2018-11-25T01:32:28.833Z,100798.46
2018-11-25T01:33:32.878Z,100799.20
2018-11-25T01:34:36.969Z,100799.12
2018-11-25T01:35:40.950Z,100793.34
2018-11-25T01:36:46.012Z,100794.20
2018-11-25T01:37:50.046Z,100796.37
2018-11-25T01:38:54.089Z,100799.00
2018-11-25T01:39:58.121Z,100801.17
2018-11-25T01:41:02.173Z,100800.32
2018-11-25T01:42:06.154Z,100797.69
2018-11-25T01:43:10.186Z,100798.62
2018-11-25T01:44:14.249Z,100798.62
2018-11-25T01:45:18.497Z,100797.11
2018-11-25T01:46:22.599Z,100791.67
2018-11-25T01:47:26.624Z,100792.02
2018-11-25T01:48:30.634Z,100799.00
2018-11-25T01:49:34.743Z,100799.27
2018-11-25T01:50:39.110Z,100798.80
2018-11-25T01:51:43.112Z,100798.80
2018-11-25T01:52:47.562Z,100795.70
2018-11-25T01:53:51.667Z,100800.50
2018-11-25T01:54:55.862Z,100803.22
2018-11-25T01:55:59.941Z,100793.61
2018-11-25T01:57:03.982Z,100793.14
2018-11-25T01:58:07.999Z,100796.17
2018-11-25T01:59:12.114Z,100798.34
2018-11-25T02:00:21.240Z,100797.88
2018-11-25T02:01:25.247Z,100801.05
2018-11-25T02:02:29.354Z,100802.48
2018-11-25T02:03:33.412Z,100802.56
2018-11-25T02:04:37.466Z,100800.52
2018-11-25T02:05:41.497Z,100797.11
2018-11-25T02:06:45.546Z,100797.69
2018-11-25T02:07:49.618Z,100795.98
2018-11-25T02:08:53.696Z,100790.36
2018-11-25T02:09:57.751Z,100797.69
2018-11-25T02:11:01.869Z,100792.03
2018-11-25T02:12:06.158Z,100795.98
2018-11-25T02:13:12.539Z,100798.62
2018-11-25T02:14:16.613Z,100798.54
2018-11-25T02:15:20.638Z,100795.44
2018-11-25T02:16:24.665Z,100796.64
2018-11-25T02:17:28.769Z,100799.58
2018-11-25T02:18:32.787Z,100795.52
2018-11-25T02:19:36.830Z,100792.68
2018-11-25T02:20:40.907Z,100793.91
2018-11-25T02:21:44.981Z,100790.31
2018-11-25T02:22:49.336Z,100798.80
2018-11-25T02:23:53.346Z,100786.67
2018-11-25T02:24:57.475Z,100793.34
2018-11-25T02:26:01.553Z,100792.99
2018-11-25T02:27:05.882Z,100794.86
2018-11-25T02:28:09.983Z,100789.78
2018-11-25T02:29:14.109Z,100789.05
2018-11-25T02:30:18.292Z,100788.27
2018-11-25T02:31:22.303Z,100785.75
2018-11-25T02:32:26.311Z,100786.80
2018-11-25T02:33:30.405Z,100785.09
2018-11-25T02:34:34.451Z,100783.86
2018-11-25T02:35:38.481Z,100782.19
2018-11-25T02:36:42.488Z,100782.37
2018-11-25T02:37:46.505Z,100783.70
2018-11-25T02:38:50.591Z,100776.73
2018-11-25T02:39:54.643Z,100782.08
2018-11-25T02:40:58.650Z,100776.81
2018-11-25T02:42:02.712Z,100770.69
2018-11-25T02:43:06.802Z,100778.52
2018-11-25T02:44:10.793Z,100772.31
2018-11-25T02:45:15.688Z,100772.58
2018-11-25T02:46:19.770Z,100775.48
2018-11-25T02:47:23.968Z,100767.20
2018-11-25T02:48:27.964Z,100767.97
2018-11-25T02:49:31.982Z,100770.02
2018-11-25T02:50:36.120Z,100771.34
2018-11-25T02:51:40.317Z,100765.80
2018-11-25T02:52:44.326Z,100771.92
2018-11-25T02:53:48.369Z,100765.41
2018-11-25T02:54:52.423Z,100765.33
2018-11-25T02:55:59.505Z,100765.33
2018-11-25T02:57:03.608Z,100766.65
2018-11-25T02:58:07.683Z,100769.83
2018-11-25T02:59:11.725Z,100762.89
2018-11-25T03:00:15.793Z,100762.51
2018-11-25T03:01:19.815Z,100763.44
2018-11-25T03:02:23.869Z,100759.98
2018-11-25T03:03:27.891Z,100771.34
2018-11-25T03:04:31.953Z,100769.09
2018-11-25T03:05:35.946Z,100768.63
2018-11-25T03:06:40.181Z,100768.52
2018-11-25T03:07:44.465Z,100774.94
2018-11-25T03:08:48.532Z,100770.80
2018-11-25T03:09:52.693Z,100774.16
2018-11-25T03:10:56.685Z,100772.38
2018-11-25T03:12:00.716Z,100767.19
2018-11-25T03:13:04.767Z,100766.45
2018-11-25T03:14:08.816Z,100763.44
2018-11-25T03:15:14.408Z,100769.17
2018-11-25T03:16:21.201Z,100770.14
2018-11-25T03:17:25.259Z,100775.02
2018-11-25T03:18:29.314Z,100773.70
2018-11-25T03:19:33.430Z,100774.36
2018-11-25T03:20:37.526Z,100774.16
2018-11-25T03:21:41.448Z,100779.23
2018-11-25T03:22:45.477Z,100783.93
2018-11-25T03:23:49.500Z,100783.47
2018-11-25T03:24:53.639Z,100781.68
2018-11-25T03:25:57.657Z,100778.30
2018-11-25T03:27:01.693Z,100777.92
2018-11-25T03:28:06.266Z,100779.16
2018-11-25T03:29:10.278Z,100783.93
2018-11-25T03:30:16.132Z,100782.53
2018-11-25T03:31:20.152Z,100782.61
2018-11-25T03:32:24.287Z,100776.14
2018-11-25T03:33:28.305Z,100776.98
2018-11-25T03:34:32.465Z,100776.02
2018-11-25T03:35:36.473Z,100772.07
2018-11-25T03:36:40.522Z,100780.75
2018-11-25T03:37:44.573Z,100779.81
2018-11-25T03:38:48.644Z,100777.53
2018-11-25T03:39:52.767Z,100781.40
2018-11-25T03:40:56.749Z,100779.23
2018-11-25T03:42:00.755Z,100785.23
2018-11-25T03:43:04.890Z,100785.70
2018-11-25T03:44:09.011Z,100797.88
2018-11-25T03:45:14.083Z,100797.95
2018-11-25T03:46:18.157Z,100792.22
2018-11-25T03:47:22.167Z,100788.26
2018-11-25T03:48:26.192Z,100789.97
2018-11-25T03:49:30.182Z,100784.58
2018-11-25T03:50:34.255Z,100787.13
2018-11-25T03:51:38.311Z,100787.31
2018-11-25T03:52:42.599Z,100779.21
2018-11-25T03:53:46.689Z,100788.23
2018-11-25T03:54:50.646Z,100784.63
2018-11-25T03:55:54.690Z,100779.75
2018-11-25T03:56:58.679Z,100785.28
2018-11-25T03:58:02.697Z,100786.25
2018-11-25T03:59:06.708Z,100783.70
2018-11-25T04:00:13.923Z,100783.90
2018-11-25T04:01:17.944Z,100787.59
2018-11-25T04:02:21.993Z,100785.41
2018-11-25T04:03:26.075Z,100786.73
2018-11-25T04:04:30.105Z,100783.63
2018-11-25T04:05:34.081Z,100781.84
2018-11-25T04:06:39.241Z,100780.53
2018-11-25T04:07:43.369Z,100781.27
2018-11-25T04:08:47.406Z,100774.20
2018-11-25T04:09:51.398Z,100782.00
2018-11-25T04:10:55.389Z,100781.06
2018-11-25T04:11:59.505Z,100779.36
2018-11-25T04:13:03.495Z,100786.45
2018-11-25T04:14:07.624Z,100788.59
2018-11-25T04:15:13.501Z,100780.22
2018-11-25T04:16:17.458Z,100781.06
2018-11-25T04:17:21.510Z,100781.06
2018-11-25T04:18:25.558Z,100781.64
2018-11-25T04:19:32.806Z,100781.18
2018-11-25T04:20:36.806Z,100776.84
2018-11-25T04:21:40.794Z,100778.90
2018-11-25T04:22:44.927Z,100780.68
2018-11-25T04:23:48.876Z,100779.01
2018-11-25T04:24:52.877Z,100780.33
2018-11-25T04:25:56.930Z,100775.05
2018-11-25T04:27:00.925Z,100780.68
2018-11-25T04:28:05.103Z,100783.70
2018-11-25T04:29:09.149Z,100780.13
2018-11-25T04:30:15.954Z,100783.12
2018-11-25T04:31:19.970Z,100782.65
2018-11-25T04:32:23.956Z,100780.02
2018-11-25T04:33:27.955Z,100782.19
2018-11-25T04:34:31.928Z,100780.40
2018-11-25T04:35:36.013Z,100782.45
2018-11-25T04:36:43.297Z,100774.08
2018-11-25T04:37:47.302Z,100783.69
2018-11-25T04:38:51.408Z,100783.30
2018-11-25T04:39:55.458Z,100784.89
2018-11-25T04:40:59.443Z,100786.70
2018-11-25T04:42:03.517Z,100782.25
2018-11-25T04:43:07.509Z,100780.00
2018-11-25T04:44:11.518Z,100778.80
2018-11-25T04:45:16.261Z,100776.36
2018-11-25T04:46:20.261Z,100781.33
2018-11-25T04:47:24.321Z,100777.58
2018-11-25T04:48:28.312Z,100773.73
2018-11-25T04:49:32.320Z,100771.10
2018-11-25T04:50:36.349Z,100771.45
2018-11-25T04:51:40.414Z,100776.53
2018-11-25T04:52:44.610Z,100777.77
2018-11-25T04:53:48.597Z,100772.02
2018-11-25T04:54:52.638Z,100775.05
2018-11-25T04:55:56.707Z,100773.72
2018-11-25T04:57:00.685Z,100771.09
2018-11-25T04:58:05.180Z,100768.06
2018-11-25T04:59:09.279Z,100768.45
2018-11-25T05:00:19.879Z,100766.55
2018-11-25T05:01:23.888Z,100766.93
2018-11-25T05:02:28.010Z,100766.93
2018-11-25T05:03:32.001Z,100764.30
2018-11-25T05:04:36.014Z,100767.40
2018-11-25T05:05:40.029Z,100768.25
2018-11-25T05:06:44.046Z,100769.92
2018-11-25T05:07:48.068Z,100767.66
2018-11-25T05:08:52.096Z,100772.00
2018-11-25T05:09:56.198Z,100769.45
2018-11-25T05:11:00.331Z,100773.52
2018-11-25T05:12:04.372Z,100773.61
2018-11-25T05:13:08.441Z,100774.55
2018-11-25T05:14:13.263Z,100775.78
2018-11-25T05:15:18.245Z,100776.16
2018-11-25T05:16:22.241Z,100773.88
2018-11-25T05:17:26.254Z,100775.58
2018-11-25T05:18:30.274Z,100773.32
2018-11-25T05:19:34.266Z,100774.64
2018-11-25T05:20:38.319Z,100772.47
2018-11-25T05:21:42.292Z,100773.41
2018-11-25T05:22:46.290Z,100764.56
2018-11-25T05:23:50.329Z,100772.00
2018-11-25T05:24:54.328Z,100765.77
2018-11-25T05:25:58.309Z,100766.14
2018-11-25T05:27:02.298Z,100766.06
2018-11-25T05:28:06.272Z,100765.09
2018-11-25T05:29:10.305Z,100762.75
2018-11-25T05:30:16.195Z,100763.95
2018-11-25T05:31:20.225Z,100759.80
2018-11-25T05:32:24.241Z,100764.14
2018-11-25T05:33:28.257Z,100761.97
2018-11-25T05:34:32.359Z,100759.80
2018-11-25T05:35:36.282Z,100757.74
2018-11-25T05:36:40.469Z,100757.36
2018-11-25T05:37:44.464Z,100754.26
2018-11-25T05:38:48.545Z,100757.16
2018-11-25T05:39:52.601Z,100753.32
2018-11-25T05:40:56.646Z,100753.32
2018-11-25T05:42:00.620Z,100755.37
2018-11-25T05:43:04.646Z,100760.64
2018-11-25T05:44:08.704Z,100756.69
2018-11-25T05:45:17.608Z,100760.18
2018-11-25T05:46:21.668Z,100757.55
2018-11-25T05:47:25.725Z,100757.92
2018-11-25T05:48:29.715Z,100763.94
2018-11-25T05:49:36.792Z,100764.20
2018-11-25T05:50:37.726Z,100765.52
2018-11-25T05:51:41.728Z,100760.24
2018-11-25T05:52:45.927Z,100762.50
2018-11-25T05:53:50.065Z,100761.68
2018-11-25T05:54:54.238Z,100760.83
2018-11-25T05:55:58.388Z,100760.83
2018-11-25T05:57:02.401Z,100755.17
2018-11-25T05:58:06.628Z,100761.77
2018-11-25T05:59:10.743Z,100760.06
2018-11-25T06:00:16.645Z,100768.83
2018-11-25T06:01:20.708Z,100760.06
2018-11-25T06:02:24.806Z,100756.61
2018-11-25T06:03:28.830Z,100756.69
2018-11-25T06:04:33.144Z,100762.55
2018-11-25T06:05:37.143Z,100756.52
2018-11-25T06:06:41.213Z,100760.47
2018-11-25T06:07:45.322Z,100760.85
2018-11-25T06:08:49.463Z,100762.64
2018-11-25T06:09:53.522Z,100759.41
2018-11-25T06:10:57.562Z,100757.08
2018-11-25T06:12:01.581Z,100758.28
2018-11-25T06:13:05.855Z,100751.59
2018-11-25T06:14:09.881Z,100751.59
2018-11-25T06:15:14.887Z,100752.45
2018-11-25T06:16:18.894Z,100747.44
2018-11-25T06:17:22.912Z,100753.56
2018-11-25T06:18:26.974Z,100751.39
2018-11-25T06:19:30.993Z,100747.05
2018-11-25T06:20:35.032Z,100751.95
2018-11-25T06:21:39.110Z,100754.23
2018-11-25T06:22:43.171Z,100750.28
2018-11-25T06:23:47.234Z,100753.27
2018-11-25T06:24:51.312Z,100757.60
2018-11-25T06:25:55.345Z,100759.30
2018-11-25T06:26:59.529Z,100758.92
2018-11-25T06:28:03.593Z,100762.87
2018-11-25T06:29:07.782Z,100761.68
2018-11-25T06:30:16.984Z,100761.30
2018-11-25T06:31:21.027Z,100762.14
2018-11-25T06:32:28.410Z,100769.09
2018-11-25T06:33:32.457Z,100758.19
2018-11-25T06:34:36.581Z,100767.89
2018-11-25T06:35:40.569Z,100773.55
2018-11-25T06:36:44.769Z,100781.46
2018-11-25T06:37:48.800Z,100777.50
2018-11-25T06:38:53.003Z,100774.87
2018-11-25T06:39:57.026Z,100775.69
2018-11-25T06:41:01.102Z,100774.37
2018-11-25T06:42:09.528Z,100777.85
2018-11-25T06:43:13.647Z,100780.02
2018-11-25T06:44:17.719Z,100779.30
2018-11-25T06:45:28.210Z,100777.97
2018-11-25T06:46:32.325Z,100777.59
2018-11-25T06:47:36.401Z,100782.02
2018-11-25T06:48:40.494Z,100777.50
2018-11-25T06:49:44.534Z,100772.58
2018-11-25T06:50:48.586Z,100772.11
2018-11-25T06:51:52.582Z,100769.47
2018-11-25T06:52:57.004Z,100768.53
2018-11-25T06:54:01.112Z,100775.13
2018-11-25T06:55:05.664Z,100772.11
2018-11-25T06:56:09.744Z,100777.77
2018-11-25T06:57:14.107Z,100771.91
2018-11-25T06:58:18.138Z,100768.34
2018-11-25T06:59:22.340Z,100773.02
2018-11-25T07:00:26.490Z,100766.89
2018-11-25T07:01:30.524Z,100774.34
2018-11-25T07:02:34.701Z,100770.03
2018-11-25T07:03:38.755Z,100770.03
2018-11-25T07:04:42.752Z,100770.59
2018-11-25T07:05:46.792Z,100769.27
2018-11-25T07:06:50.835Z,100773.23
2018-11-25T07:07:54.895Z,100773.61
2018-11-25T07:08:58.885Z,100767.87
2018-11-25T07:10:03.054Z,100768.22
2018-11-25T07:11:07.110Z,100772.09
2018-11-25T07:12:11.235Z,100774.72
2018-11-25T07:13:15.417Z,100780.00
2018-11-25T07:14:19.454Z,100775.02
2018-11-25T07:15:23.489Z,100769.47
2018-11-25T07:16:27.573Z,100767.89
2018-11-25T07:17:31.579Z,100766.66
2018-11-25T07:18:35.695Z,100767.04
2018-11-25T07:19:39.676Z,100774.56
2018-11-25T07:20:43.699Z,100767.98
2018-11-25T07:21:47.739Z,100767.16
2018-11-25T07:22:51.882Z,100777.50
2018-11-25T07:23:56.053Z,100766.95
2018-11-25T07:25:00.107Z,100772.11
2018-11-25T07:26:04.271Z,100773.34
2018-11-25T07:27:08.329Z,100773.23
2018-11-25T07:28:18.424Z,100769.27
2018-11-25T07:29:16.362Z,100771.91
2018-11-25T07:30:24.579Z,100772.37
2018-11-25T07:31:28.798Z,100773.61
2018-11-25T07:32:32.903Z,100770.50
2018-11-25T07:33:37.009Z,100772.50
2018-11-25T07:34:41.280Z,100774.48
2018-11-25T07:35:45.315Z,100779.30
2018-11-25T07:36:49.354Z,100775.42
2018-11-25T07:37:53.351Z,100775.06
2018-11-25T07:38:57.711Z,100775.80
2018-11-25T07:40:01.726Z,100771.93
2018-11-25T07:41:05.814Z,100773.16
2018-11-25T07:42:09.893Z,100774.02
2018-11-25T07:43:13.934Z,100774.37
2018-11-25T07:44:17.983Z,100776.53
2018-11-25T07:45:30.267Z,100772.50
2018-11-25T07:46:28.092Z,100777.77
2018-11-25T07:47:32.107Z,100781.05
2018-11-25T07:48:36.150Z,100778.03
2018-11-25T07:49:40.155Z,100777.56
2018-11-25T07:50:44.210Z,100773.61
2018-11-25T07:51:48.286Z,100776.13
2018-11-25T07:52:52.621Z,100775.78
2018-11-25T07:53:56.969Z,100773.14
2018-11-25T07:55:01.049Z,100782.37
2018-11-25T07:56:05.102Z,100776.98
2018-11-25T07:57:09.175Z,100780.47
2018-11-25T07:58:13.161Z,100774.72
2018-11-25T07:59:17.186Z,100775.66
2018-11-25T08:00:23.052Z,100774.26
2018-11-25T08:01:27.110Z,100775.11
2018-11-25T08:02:31.245Z,100774.72
2018-11-25T08:03:35.260Z,100777.74
2018-11-25T08:04:39.230Z,100780.38
2018-11-25T08:05:43.257Z,100779.06
2018-11-25T08:06:47.296Z,100784.69
2018-11-25T08:07:51.318Z,100783.58
2018-11-25T08:08:55.369Z,100785.27
2018-11-25T08:09:59.466Z,100790.55
2018-11-25T08:11:03.828Z,100787.91
2018-11-25T08:12:07.896Z,100789.12
2018-11-25T08:13:12.022Z,100782.64
2018-11-25T08:14:15.992Z,100782.44
2018-11-25T08:15:20.375Z,100783.67
2018-11-25T08:16:24.373Z,100784.48
2018-11-25T08:17:28.395Z,100784.48
2018-11-25T08:18:32.474Z,100789.03
2018-11-25T08:19:36.505Z,100788.45
2018-11-25T08:20:40.509Z,100785.45
2018-11-25T08:21:44.548Z,100784.48
2018-11-25T08:22:48.655Z,100787.13
2018-11-25T08:23:52.730Z,100780.53
2018-11-25T08:24:56.722Z,100777.62
2018-11-25T08:26:00.840Z,100773.94
2018-11-25T08:27:04.850Z,100772.53
2018-11-25T08:28:08.809Z,100768.45
2018-11-25T08:29:12.821Z,100768.37
2018-11-25T08:30:17.773Z,100771.73
2018-11-25T08:31:21.798Z,100768.28
2018-11-25T08:32:25.957Z,100763.82
2018-11-25T08:33:30.028Z,100768.55
2018-11-25T08:34:34.121Z,100765.44
2018-11-25T08:35:38.156Z,100758.45
2018-11-25T08:36:42.164Z,100756.75
2018-11-25T08:37:52.878Z,100758.45
2018-11-25T08:38:57.001Z,100759.31
2018-11-25T08:40:01.033Z,100754.88
2018-11-25T08:41:05.062Z,100751.27
2018-11-25T08:42:09.798Z,100752.24
2018-11-25T08:43:13.846Z,100746.11
2018-11-25T08:44:17.881Z,100748.16
2018-11-25T08:45:21.989Z,100746.38
2018-11-25T08:46:26.302Z,100748.55
2018-11-25T08:47:30.306Z,100749.39
2018-11-25T08:48:34.380Z,100750.25
2018-11-25T08:49:38.420Z,100749.02
2018-11-25T08:50:42.438Z,100748.63
2018-11-25T08:51:46.524Z,100745.52
2018-11-25T08:52:52.548Z,100746.47
2018-11-25T08:53:56.670Z,100750.54
2018-11-25T08:55:00.688Z,100747.17
2018-11-25T08:56:04.848Z,100749.05
2018-11-25T08:57:08.847Z,100748.58
2018-11-25T08:58:16.994Z,100745.09
2018-11-25T08:59:21.038Z,100745.35
2018-11-25T09:00:27.240Z,100750.62
2018-11-25T09:01:29.917Z,100747.17
2018-11-25T09:02:33.920Z,100754.11
2018-11-25T09:03:38.020Z,100752.24
2018-11-25T09:04:42.128Z,100755.61
2018-11-25T09:05:46.139Z,100754.55
2018-11-25T09:06:50.132Z,100755.78
2018-11-25T09:07:54.245Z,100758.89
2018-11-25T09:08:58.327Z,100762.00
2018-11-25T09:10:02.348Z,100758.98
2018-11-25T09:11:06.597Z,100759.36
2018-11-25T09:12:10.579Z,100767.08
2018-11-25T09:13:14.666Z,100758.69
2018-11-25T09:14:18.841Z,100761.23
2018-11-25T09:15:24.119Z,100761.84
2018-11-25T09:16:28.360Z,100770.06
2018-11-25T09:17:32.394Z,100764.78
2018-11-25T09:18:36.452Z,100764.78
2018-11-25T09:19:40.455Z,100764.66
2018-11-25T09:20:44.445Z,100758.91
2018-11-25T09:21:48.454Z,100769.85
2018-11-25T09:22:52.912Z,100772.84
2018-11-25T09:23:56.840Z,100769.27
2018-11-25T09:25:00.867Z,100776.63
2018-11-25T09:26:04.862Z,100772.66
2018-11-25T09:27:08.898Z,100770.02
2018-11-25T09:28:12.891Z,100770.02
2018-11-25T09:29:16.961Z,100769.05
2018-11-25T09:30:22.098Z,100768.11
2018-11-25T09:31:26.098Z,100762.36
2018-11-25T09:32:30.221Z,100767.99
2018-11-25T09:33:34.219Z,100769.69
2018-11-25T09:34:38.250Z,100768.75
2018-11-25T09:35:42.231Z,100765.99
2018-11-25T09:36:46.240Z,100762.03
2018-11-25T09:37:50.254Z,100769.78
2018-11-25T09:38:54.334Z,100760.16
2018-11-25T09:39:58.329Z,100765.44
2018-11-25T09:41:06.698Z,100765.44
2018-11-25T09:42:10.721Z,100762.03
2018-11-25T09:43:14.716Z,100765.99
2018-11-25T09:44:18.802Z,100767.31
2018-11-25T09:45:22.960Z,100767.69
2018-11-25T09:46:27.054Z,100763.00
2018-11-25T09:47:31.014Z,100759.39
2018-11-25T09:48:35.050Z,100756.20
2018-11-25T09:49:38.999Z,100751.20
2018-11-25T09:50:43.030Z,100756.40
2018-11-25T09:51:47.051Z,100757.12
2018-11-25T09:52:51.252Z,100752.95
2018-11-25T09:53:55.633Z,100754.27
2018-11-25T09:54:59.833Z,100756.32
2018-11-25T09:56:03.881Z,100753.33
2018-11-25T09:57:08.056Z,100748.99
2018-11-25T09:58:12.081Z,100752.02
2018-11-25T09:59:16.087Z,100751.05
2018-11-25T10:00:21.271Z,100746.14
2018-11-25T10:01:25.511Z,100744.81
2018-11-25T10:02:29.566Z,100742.18
2018-11-25T10:03:33.583Z,100744.73
2018-11-25T10:04:37.577Z,100745.92
2018-11-25T10:05:42.232Z,100740.27
2018-11-25T10:06:46.216Z,100740.39
2018-11-25T10:07:50.448Z,100743.03
2018-11-25T10:08:54.604Z,100736.05
2018-11-25T10:09:58.613Z,100739.54
2018-11-25T10:11:02.674Z,100742.09
2018-11-25T10:12:06.887Z,100740.64
2018-11-25T10:13:10.864Z,100739.11
2018-11-25T10:14:14.835Z,100743.23
2018-11-25T10:15:20.903Z,100738.69
2018-11-25T10:16:24.950Z,100737.48
2018-11-25T10:17:29.019Z,100735.91
2018-11-25T10:18:33.118Z,100736.38
2018-11-25T10:19:37.277Z,100737.23
2018-11-25T10:20:41.270Z,100740.81
2018-11-25T10:21:45.271Z,100739.88
2018-11-25T10:22:49.244Z,100736.25
2018-11-25T10:23:53.249Z,100738.90
2018-11-25T10:24:57.279Z,100739.88
2018-11-25T10:26:01.263Z,100736.85
2018-11-25T10:27:05.360Z,100736.00
2018-11-25T10:28:09.282Z,100735.63
2018-11-25T10:29:13.671Z,100733.83
2018-11-25T10:30:19.545Z,100730.84
2018-11-25T10:31:23.569Z,100737.80
2018-11-25T10:32:27.558Z,100732.89
2018-11-25T10:33:31.518Z,100730.84
2018-11-25T10:34:35.554Z,100734.68
2018-11-25T10:35:39.569Z,100730.46
2018-11-25T10:36:43.566Z,100731.78
2018-11-25T10:37:47.558Z,100734.80
2018-11-25T10:38:51.573Z,100731.66
2018-11-25T10:39:55.528Z,100725.44
2018-11-25T10:40:59.539Z,100727.98
2018-11-25T10:42:03.575Z,100731.73
2018-11-25T10:43:07.603Z,100732.46
2018-11-25T10:44:11.666Z,100730.41
2018-11-25T10:45:19.235Z,100732.77
2018-11-25T10:46:23.287Z,100731.57
2018-11-25T10:47:27.283Z,100730.72
2018-11-25T10:48:31.253Z,100731.57
2018-11-25T10:49:35.284Z,100728.45
2018-11-25T10:50:39.250Z,100724.59
2018-11-25T10:51:43.366Z,100722.42
2018-11-25T10:52:47.587Z,100721.48
2018-11-25T10:53:51.590Z,100722.70
2018-11-25T10:54:55.736Z,100724.75
2018-11-25T10:55:59.949Z,100720.58
2018-11-25T10:57:04.075Z,100716.99
2018-11-25T10:58:08.091Z,100717.72
2018-11-25T10:59:12.107Z,100718.66
2018-11-25T11:00:27.386Z,100718.41
2018-11-25T11:01:45.787Z,100716.36
2018-11-25T11:02:53.965Z,100713.34
2018-11-25T11:03:58.401Z,100715.60
2018-11-25T11:05:05.585Z,100713.46
2018-11-25T11:06:15.004Z,100716.58
2018-11-25T11:07:22.079Z,100712.48
2018-11-25T11:08:26.326Z,100713.81
2018-11-25T11:09:30.366Z,100707.97
2018-11-25T11:10:34.440Z,100710.61
2018-11-25T11:11:38.487Z,100706.99
2018-11-25T11:12:42.614Z,100705.33
2018-11-25T11:13:46.628Z,100710.32
2018-11-25T11:14:50.709Z,100713.68
2018-11-25T11:15:54.864Z,100714.87
2018-11-25T11:16:58.881Z,100715.34
2018-11-25T11:18:03.044Z,100710.19
2018-11-25T11:19:07.087Z,100708.40
2018-11-25T11:20:11.213Z,100711.04
2018-11-25T11:21:15.304Z,100708.40
2018-11-25T11:22:19.490Z,100707.89
2018-11-25T11:23:23.502Z,100709.00
2018-11-25T11:24:27.616Z,100720.20
2018-11-25T11:25:31.647Z,100713.38
2018-11-25T11:26:35.783Z,100714.70
2018-11-25T11:27:39.827Z,100716.99
2018-11-25T11:28:43.909Z,100717.84
2018-11-25T11:29:47.939Z,100712.56
2018-11-25T11:30:51.978Z,100712.56
2018-11-25T11:31:56.066Z,100714.45
2018-11-25T11:33:00.086Z,100713.12
2018-11-25T11:34:04.178Z,100710.61
2018-11-25T11:35:08.445Z,100710.48
2018-11-25T11:36:12.472Z,100715.77
2018-11-25T11:37:16.509Z,100715.89
2018-11-25T11:38:20.802Z,100713.25
2018-11-25T11:39:24.847Z,100715.77
2018-11-25T11:40:28.858Z,100714.09
2018-11-25T11:41:32.861Z,100714.19
2018-11-25T11:42:36.928Z,100722.11
2018-11-25T11:43:40.939Z,100713.81
2018-11-25T11:44:45.041Z,100712.96
2018-11-25T11:45:49.042Z,100713.81
2018-11-25T11:46:53.069Z,100713.46
2018-11-25T11:47:57.130Z,100715.51
2018-11-25T11:49:01.332Z,100717.21
2018-11-25T11:50:08.061Z,100714.57
2018-11-25T11:51:12.142Z,100712.78
2018-11-25T11:52:16.323Z,100710.02
2018-11-25T11:53:20.564Z,100717.56
2018-11-25T11:54:24.570Z,100716.23
2018-11-25T11:55:28.837Z,100713.88
2018-11-25T11:56:36.049Z,100710.90
2018-11-25T11:57:37.022Z,100710.34
2018-11-25T11:58:41.070Z,100716.34
2018-11-25T11:59:45.050Z,100712.76
2018-11-25T12:00:54.434Z,100713.11
2018-11-25T12:01:58.386Z,100713.86
2018-11-25T12:03:02.405Z,100715.75
2018-11-25T12:04:06.406Z,100713.23
2018-11-25T12:05:10.624Z,100713.70
2018-11-25T12:06:14.582Z,100709.36
2018-11-25T12:07:18.583Z,100710.90
2018-11-25T12:08:22.576Z,100716.31
2018-11-25T12:09:26.623Z,100713.20
2018-11-25T12:10:30.635Z,100709.80
2018-11-25T12:11:34.638Z,100710.64
2018-11-25T12:12:38.773Z,100707.53
2018-11-25T12:13:42.862Z,100706.09
2018-11-25T12:14:50.187Z,100702.98